sensor_id;sensor_type;location;lat;lon;timestamp;temperature;humidity
17415;DHT22;8825;48.086;16.426;2024-01-07T00:02:07;6.10;79.30
17415;DHT22;8825;48.086;16.426;2024-01-07T00:04:35;6.10;79.10
17415;DHT22;8825;48.086;16.426;2024-01-07T00:07:03;6.00;79.00
17415;DHT22;8825;48.086;16.426;2024-01-07T00:09:31;6.00;79.00
17415;DHT22;8825;48.086;16.426;2024-01-07T00:11:59;5.90;79.80
17415;DHT22;8825;48.086;16.426;2024-01-07T00:14:26;6.00;79.20
17415;DHT22;8825;48.086;16.426;2024-01-07T00:16:54;5.90;79.00
17415;DHT22;8825;48.086;16.426;2024-01-07T00:19:21;5.90;79.00
17415;DHT22;8825;48.086;16.426;2024-01-07T00:21:49;5.80;79.00
17415;DHT22;8825;48.086;16.426;2024-01-07T00:24:16;5.80;79.10
17415;DHT22;8825;48.086;16.426;2024-01-07T00:26:44;5.80;79.10
17415;DHT22;8825;48.086;16.426;2024-01-07T00:29:11;5.80;79.10
17415;DHT22;8825;48.086;16.426;2024-01-07T00:31:39;5.70;79.10
17415;DHT22;8825;48.086;16.426;2024-01-07T00:34:06;5.70;79.10
17415;DHT22;8825;48.086;16.426;2024-01-07T00:36:34;5.70;79.20
17415;DHT22;8825;48.086;16.426;2024-01-07T00:39:01;5.70;79.20
17415;DHT22;8825;48.086;16.426;2024-01-07T00:41:29;5.70;79.20
17415;DHT22;8825;48.086;16.426;2024-01-07T00:43:59;5.70;79.30
17415;DHT22;8825;48.086;16.426;2024-01-07T00:46:27;5.60;79.30
17415;DHT22;8825;48.086;16.426;2024-01-07T00:48:54;5.70;79.30
17415;DHT22;8825;48.086;16.426;2024-01-07T00:51:22;5.60;79.30
17415;DHT22;8825;48.086;16.426;2024-01-07T00:53:49;5.60;79.20
17415;DHT22;8825;48.086;16.426;2024-01-07T00:56:17;5.60;79.20
17415;DHT22;8825;48.086;16.426;2024-01-07T00:58:44;5.60;79.20
17415;DHT22;8825;48.086;16.426;2024-01-07T01:01:12;5.60;79.20
17415;DHT22;8825;48.086;16.426;2024-01-07T01:03:39;5.60;79.00
17415;DHT22;8825;48.086;16.426;2024-01-07T01:06:07;5.50;79.00
17415;DHT22;8825;48.086;16.426;2024-01-07T01:08:34;5.60;79.00
17415;DHT22;8825;48.086;16.426;2024-01-07T01:11:02;5.50;78.90
17415;DHT22;8825;48.086;16.426;2024-01-07T01:13:29;5.50;78.60
17415;DHT22;8825;48.086;16.426;2024-01-07T01:15:57;5.40;78.70
17415;DHT22;8825;48.086;16.426;2024-01-07T01:18:24;5.40;78.60
17415;DHT22;8825;48.086;16.426;2024-01-07T01:20:52;5.30;78.60
17415;DHT22;8825;48.086;16.426;2024-01-07T01:23:19;5.30;78.80
17415;DHT22;8825;48.086;16.426;2024-01-07T01:25:47;5.30;78.60
17415;DHT22;8825;48.086;16.426;2024-01-07T01:28:14;5.20;78.50
17415;DHT22;8825;48.086;16.426;2024-01-07T01:30:42;5.20;78.70
17415;DHT22;8825;48.086;16.426;2024-01-07T01:33:09;5.20;78.70
17415;DHT22;8825;48.086;16.426;2024-01-07T01:35:37;5.20;78.60
17415;DHT22;8825;48.086;16.426;2024-01-07T01:38:24;5.10;78.50
17415;DHT22;8825;48.086;16.426;2024-01-07T01:40:52;5.00;78.10
17415;DHT22;8825;48.086;16.426;2024-01-07T01:43:25;5.00;78.50
17415;DHT22;8825;48.086;16.426;2024-01-07T01:45:54;5.00;78.60
17415;DHT22;8825;48.086;16.426;2024-01-07T01:48:23;5.00;78.90
17415;DHT22;8825;48.086;16.426;2024-01-07T01:50:51;5.00;78.80
17415;DHT22;8825;48.086;16.426;2024-01-07T01:53:20;4.90;78.70
17415;DHT22;8825;48.086;16.426;2024-01-07T01:55:48;4.90;78.60
17415;DHT22;8825;48.086;16.426;2024-01-07T01:58:18;4.80;78.60
17415;DHT22;8825;48.086;16.426;2024-01-07T02:00:46;4.80;78.60
17415;DHT22;8825;48.086;16.426;2024-01-07T02:03:14;4.70;78.60
17415;DHT22;8825;48.086;16.426;2024-01-07T02:05:41;4.70;78.80
17415;DHT22;8825;48.086;16.426;2024-01-07T02:08:09;4.70;78.80
17415;DHT22;8825;48.086;16.426;2024-01-07T02:10:37;4.70;78.90
17415;DHT22;8825;48.086;16.426;2024-01-07T02:13:05;4.60;78.80
17415;DHT22;8825;48.086;16.426;2024-01-07T02:15:32;4.60;78.70
17415;DHT22;8825;48.086;16.426;2024-01-07T02:18:01;4.50;78.60
17415;DHT22;8825;48.086;16.426;2024-01-07T02:20:28;4.50;78.70
17415;DHT22;8825;48.086;16.426;2024-01-07T02:22:56;4.50;78.80
17415;DHT22;8825;48.086;16.426;2024-01-07T02:25:26;4.40;78.80
17415;DHT22;8825;48.086;16.426;2024-01-07T02:27:54;4.40;78.90
17415;DHT22;8825;48.086;16.426;2024-01-07T02:30:22;4.40;79.00
17415;DHT22;8825;48.086;16.426;2024-01-07T02:32:49;4.40;79.00
17415;DHT22;8825;48.086;16.426;2024-01-07T02:35:17;4.40;79.10
17415;DHT22;8825;48.086;16.426;2024-01-07T02:37:44;4.40;79.20
17415;DHT22;8825;48.086;16.426;2024-01-07T02:40:12;4.40;79.00
17415;DHT22;8825;48.086;16.426;2024-01-07T02:42:39;4.40;79.70
17415;DHT22;8825;48.086;16.426;2024-01-07T02:45:07;4.40;79.80
17415;DHT22;8825;48.086;16.426;2024-01-07T02:47:35;4.50;78.90
17415;DHT22;8825;48.086;16.426;2024-01-07T02:50:02;4.50;78.50
17415;DHT22;8825;48.086;16.426;2024-01-07T02:52:30;4.40;78.20
17415;DHT22;8825;48.086;16.426;2024-01-07T02:54:58;4.40;78.80
17415;DHT22;8825;48.086;16.426;2024-01-07T02:57:28;4.40;78.00
17415;DHT22;8825;48.086;16.426;2024-01-07T02:59:55;4.30;78.00
17415;DHT22;8825;48.086;16.426;2024-01-07T03:02:23;4.30;78.20
17415;DHT22;8825;48.086;16.426;2024-01-07T03:04:50;4.30;78.40
17415;DHT22;8825;48.086;16.426;2024-01-07T03:07:18;4.30;78.60
17415;DHT22;8825;48.086;16.426;2024-01-07T03:09:45;4.30;78.60
17415;DHT22;8825;48.086;16.426;2024-01-07T03:12:14;4.30;78.60
17415;DHT22;8825;48.086;16.426;2024-01-07T03:14:41;4.40;78.60
17415;DHT22;8825;48.086;16.426;2024-01-07T03:17:12;4.40;78.50
17415;DHT22;8825;48.086;16.426;2024-01-07T03:19:41;4.40;78.10
17415;DHT22;8825;48.086;16.426;2024-01-07T03:22:09;4.30;77.70
17415;DHT22;8825;48.086;16.426;2024-01-07T03:24:36;4.30;77.50
17415;DHT22;8825;48.086;16.426;2024-01-07T03:27:04;4.30;77.30
17415;DHT22;8825;48.086;16.426;2024-01-07T03:29:31;4.30;77.00
17415;DHT22;8825;48.086;16.426;2024-01-07T03:31:59;4.20;76.80
17415;DHT22;8825;48.086;16.426;2024-01-07T03:34:27;4.20;76.70
17415;DHT22;8825;48.086;16.426;2024-01-07T03:36:54;4.20;76.70
17415;DHT22;8825;48.086;16.426;2024-01-07T03:39:22;4.20;76.80
17415;DHT22;8825;48.086;16.426;2024-01-07T03:41:49;4.10;76.70
17415;DHT22;8825;48.086;16.426;2024-01-07T03:44:18;4.10;76.70
17415;DHT22;8825;48.086;16.426;2024-01-07T03:46:46;4.10;77.00
17415;DHT22;8825;48.086;16.426;2024-01-07T03:49:13;4.10;77.10
17415;DHT22;8825;48.086;16.426;2024-01-07T03:51:41;4.10;76.70
17415;DHT22;8825;48.086;16.426;2024-01-07T03:54:08;4.10;76.80
17415;DHT22;8825;48.086;16.426;2024-01-07T03:56:36;4.10;77.00
17415;DHT22;8825;48.086;16.426;2024-01-07T03:59:03;4.10;77.10
17415;DHT22;8825;48.086;16.426;2024-01-07T04:01:31;4.20;77.30
17415;DHT22;8825;48.086;16.426;2024-01-07T04:03:58;4.20;77.40
17415;DHT22;8825;48.086;16.426;2024-01-07T04:06:26;4.20;77.40
17415;DHT22;8825;48.086;16.426;2024-01-07T04:09:12;4.20;77.00
17415;DHT22;8825;48.086;16.426;2024-01-07T04:11:41;4.10;76.00
17415;DHT22;8825;48.086;16.426;2024-01-07T04:14:09;4.00;75.80
17415;DHT22;8825;48.086;16.426;2024-01-07T04:16:36;4.00;75.60
17415;DHT22;8825;48.086;16.426;2024-01-07T04:19:04;4.00;75.60
17415;DHT22;8825;48.086;16.426;2024-01-07T04:21:31;3.90;75.70
17415;DHT22;8825;48.086;16.426;2024-01-07T04:23:59;3.90;75.90
17415;DHT22;8825;48.086;16.426;2024-01-07T04:26:26;3.90;75.90
17415;DHT22;8825;48.086;16.426;2024-01-07T04:28:54;3.90;75.80
17415;DHT22;8825;48.086;16.426;2024-01-07T04:31:21;3.90;76.20
17415;DHT22;8825;48.086;16.426;2024-01-07T04:33:49;3.90;76.40
17415;DHT22;8825;48.086;16.426;2024-01-07T04:36:16;4.00;76.40
17415;DHT22;8825;48.086;16.426;2024-01-07T04:38:44;4.00;76.40
17415;DHT22;8825;48.086;16.426;2024-01-07T04:41:11;4.00;76.30
17415;DHT22;8825;48.086;16.426;2024-01-07T04:43:39;3.90;76.00
17415;DHT22;8825;48.086;16.426;2024-01-07T04:46:07;3.90;75.20
17415;DHT22;8825;48.086;16.426;2024-01-07T04:48:36;3.90;74.50
17415;DHT22;8825;48.086;16.426;2024-01-07T04:51:03;3.80;75.30
17415;DHT22;8825;48.086;16.426;2024-01-07T04:53:31;3.80;74.50
17415;DHT22;8825;48.086;16.426;2024-01-07T04:55:59;3.80;74.70
17415;DHT22;8825;48.086;16.426;2024-01-07T04:58:26;3.70;75.00
17415;DHT22;8825;48.086;16.426;2024-01-07T05:00:54;3.70;75.30
17415;DHT22;8825;48.086;16.426;2024-01-07T05:03:21;3.70;75.70
17415;DHT22;8825;48.086;16.426;2024-01-07T05:05:49;3.70;76.00
17415;DHT22;8825;48.086;16.426;2024-01-07T05:08:16;3.80;76.30
17415;DHT22;8825;48.086;16.426;2024-01-07T05:10:44;3.80;75.70
17415;DHT22;8825;48.086;16.426;2024-01-07T05:13:11;3.70;75.80
17415;DHT22;8825;48.086;16.426;2024-01-07T05:15:39;3.80;75.40
17415;DHT22;8825;48.086;16.426;2024-01-07T05:18:09;3.80;75.20
17415;DHT22;8825;48.086;16.426;2024-01-07T05:20:37;3.70;75.10
17415;DHT22;8825;48.086;16.426;2024-01-07T05:23:05;3.70;75.10
17415;DHT22;8825;48.086;16.426;2024-01-07T05:25:32;3.70;75.50
17415;DHT22;8825;48.086;16.426;2024-01-07T05:28:00;3.70;75.80
17415;DHT22;8825;48.086;16.426;2024-01-07T05:30:27;3.80;76.10
17415;DHT22;8825;48.086;16.426;2024-01-07T05:32:55;3.70;76.10
17415;DHT22;8825;48.086;16.426;2024-01-07T05:35:22;3.80;76.10
17415;DHT22;8825;48.086;16.426;2024-01-07T05:37:50;3.80;76.00
17415;DHT22;8825;48.086;16.426;2024-01-07T05:40:17;3.80;76.10
17415;DHT22;8825;48.086;16.426;2024-01-07T05:42:45;3.80;77.00
17415;DHT22;8825;48.086;16.426;2024-01-07T05:45:13;3.80;76.40
17415;DHT22;8825;48.086;16.426;2024-01-07T05:47:40;3.90;76.60
17415;DHT22;8825;48.086;16.426;2024-01-07T05:50:08;3.90;76.50
17415;DHT22;8825;48.086;16.426;2024-01-07T05:52:37;3.90;76.50
17415;DHT22;8825;48.086;16.426;2024-01-07T05:55:05;3.80;76.50
17415;DHT22;8825;48.086;16.426;2024-01-07T05:57:33;3.80;76.50
17415;DHT22;8825;48.086;16.426;2024-01-07T06:00:00;3.80;76.40
17415;DHT22;8825;48.086;16.426;2024-01-07T06:02:28;3.70;76.20
17415;DHT22;8825;48.086;16.426;2024-01-07T06:04:55;3.70;76.10
17415;DHT22;8825;48.086;16.426;2024-01-07T06:07:23;3.70;76.10
17415;DHT22;8825;48.086;16.426;2024-01-07T06:09:50;3.60;76.30
17415;DHT22;8825;48.086;16.426;2024-01-07T06:12:18;3.60;76.60
17415;DHT22;8825;48.086;16.426;2024-01-07T06:14:45;3.50;76.80
17415;DHT22;8825;48.086;16.426;2024-01-07T06:17:13;3.50;77.20
17415;DHT22;8825;48.086;16.426;2024-01-07T06:19:40;3.50;77.00
17415;DHT22;8825;48.086;16.426;2024-01-07T06:22:08;3.50;77.10
17415;DHT22;8825;48.086;16.426;2024-01-07T06:24:35;3.60;77.60
17415;DHT22;8825;48.086;16.426;2024-01-07T06:27:03;3.70;77.70
17415;DHT22;8825;48.086;16.426;2024-01-07T06:29:31;3.70;77.60
17415;DHT22;8825;48.086;16.426;2024-01-07T06:31:58;3.80;77.50
17415;DHT22;8825;48.086;16.426;2024-01-07T06:34:26;3.80;77.30
17415;DHT22;8825;48.086;16.426;2024-01-07T06:36:53;3.80;77.30
17415;DHT22;8825;48.086;16.426;2024-01-07T06:39:21;3.80;77.30
17415;DHT22;8825;48.086;16.426;2024-01-07T06:41:48;3.70;77.00
17415;DHT22;8825;48.086;16.426;2024-01-07T06:44:16;3.70;76.90
17415;DHT22;8825;48.086;16.426;2024-01-07T06:46:43;3.70;77.20
17415;DHT22;8825;48.086;16.426;2024-01-07T06:49:11;3.70;77.20
17415;DHT22;8825;48.086;16.426;2024-01-07T06:51:38;3.60;76.80
17415;DHT22;8825;48.086;16.426;2024-01-07T06:54:06;3.60;76.60
17415;DHT22;8825;48.086;16.426;2024-01-07T06:56:33;3.60;76.50
17415;DHT22;8825;48.086;16.426;2024-01-07T06:59:01;3.60;76.50
17415;DHT22;8825;48.086;16.426;2024-01-07T07:01:29;3.60;76.40
17415;DHT22;8825;48.086;16.426;2024-01-07T07:03:56;3.50;76.40
17415;DHT22;8825;48.086;16.426;2024-01-07T07:06:24;3.50;76.50
17415;DHT22;8825;48.086;16.426;2024-01-07T07:08:51;3.50;76.70
17415;DHT22;8825;48.086;16.426;2024-01-07T07:11:18;3.40;76.60
17415;DHT22;8825;48.086;16.426;2024-01-07T07:13:46;3.40;76.80
17415;DHT22;8825;48.086;16.426;2024-01-07T07:16:14;3.40;76.80
17415;DHT22;8825;48.086;16.426;2024-01-07T07:18:41;3.40;76.50
17415;DHT22;8825;48.086;16.426;2024-01-07T07:21:09;3.30;76.60
17415;DHT22;8825;48.086;16.426;2024-01-07T07:23:36;3.30;76.50
17415;DHT22;8825;48.086;16.426;2024-01-07T07:26:04;3.20;76.70
17415;DHT22;8825;48.086;16.426;2024-01-07T07:28:33;3.20;76.90
17415;DHT22;8825;48.086;16.426;2024-01-07T07:31:00;3.20;76.90
17415;DHT22;8825;48.086;16.426;2024-01-07T07:33:28;3.20;77.00
17415;DHT22;8825;48.086;16.426;2024-01-07T07:35:55;3.20;77.10
17415;DHT22;8825;48.086;16.426;2024-01-07T07:38:23;3.20;77.20
17415;DHT22;8825;48.086;16.426;2024-01-07T07:40:50;3.20;77.10
17415;DHT22;8825;48.086;16.426;2024-01-07T07:43:20;3.20;77.30
17415;DHT22;8825;48.086;16.426;2024-01-07T07:45:48;3.20;76.60
17415;DHT22;8825;48.086;16.426;2024-01-07T07:48:15;3.10;76.10
17415;DHT22;8825;48.086;16.426;2024-01-07T07:50:43;3.10;75.90
17415;DHT22;8825;48.086;16.426;2024-01-07T07:53:10;3.00;75.60
17415;DHT22;8825;48.086;16.426;2024-01-07T07:55:38;2.90;75.10
17415;DHT22;8825;48.086;16.426;2024-01-07T07:58:06;2.90;75.40
17415;DHT22;8825;48.086;16.426;2024-01-07T08:00:34;2.90;75.70
17415;DHT22;8825;48.086;16.426;2024-01-07T08:03:02;2.80;76.10
17415;DHT22;8825;48.086;16.426;2024-01-07T08:05:29;2.80;76.40
17415;DHT22;8825;48.086;16.426;2024-01-07T08:07:57;2.80;76.70
17415;DHT22;8825;48.086;16.426;2024-01-07T08:10:24;2.80;77.10
17415;DHT22;8825;48.086;16.426;2024-01-07T08:12:52;2.90;77.20
17415;DHT22;8825;48.086;16.426;2024-01-07T08:15:19;2.90;77.40
17415;DHT22;8825;48.086;16.426;2024-01-07T08:17:47;2.90;77.60
17415;DHT22;8825;48.086;16.426;2024-01-07T08:20:14;3.00;77.80
17415;DHT22;8825;48.086;16.426;2024-01-07T08:22:42;3.00;77.60
17415;DHT22;8825;48.086;16.426;2024-01-07T08:25:09;2.90;76.40
17415;DHT22;8825;48.086;16.426;2024-01-07T08:27:37;2.80;75.60
17415;DHT22;8825;48.086;16.426;2024-01-07T08:30:06;2.80;75.70
17415;DHT22;8825;48.086;16.426;2024-01-07T08:32:34;2.70;75.60
17415;DHT22;8825;48.086;16.426;2024-01-07T08:35:02;2.70;75.70
17415;DHT22;8825;48.086;16.426;2024-01-07T08:37:29;2.70;76.00
17415;DHT22;8825;48.086;16.426;2024-01-07T08:39:57;2.70;76.30
17415;DHT22;8825;48.086;16.426;2024-01-07T08:42:24;2.70;76.40
17415;DHT22;8825;48.086;16.426;2024-01-07T08:44:52;2.70;76.60
17415;DHT22;8825;48.086;16.426;2024-01-07T08:47:19;2.70;76.80
17415;DHT22;8825;48.086;16.426;2024-01-07T08:49:47;2.70;77.00
17415;DHT22;8825;48.086;16.426;2024-01-07T08:52:14;2.70;76.90
17415;DHT22;8825;48.086;16.426;2024-01-07T08:54:42;2.60;76.60
17415;DHT22;8825;48.086;16.426;2024-01-07T08:57:09;2.50;76.60
17415;DHT22;8825;48.086;16.426;2024-01-07T08:59:37;2.50;76.00
17415;DHT22;8825;48.086;16.426;2024-01-07T09:02:05;2.50;75.40
17415;DHT22;8825;48.086;16.426;2024-01-07T09:04:32;2.40;75.00
17415;DHT22;8825;48.086;16.426;2024-01-07T09:07:00;2.40;74.70
17415;DHT22;8825;48.086;16.426;2024-01-07T09:09:27;2.50;74.40
17415;DHT22;8825;48.086;16.426;2024-01-07T09:11:55;2.50;74.30
17415;DHT22;8825;48.086;16.426;2024-01-07T09:14:24;2.40;74.30
17415;DHT22;8825;48.086;16.426;2024-01-07T09:16:51;2.40;74.70
17415;DHT22;8825;48.086;16.426;2024-01-07T09:19:20;2.50;75.30
17415;DHT22;8825;48.086;16.426;2024-01-07T09:21:47;2.50;75.60
17415;DHT22;8825;48.086;16.426;2024-01-07T09:24:15;2.50;75.90
17415;DHT22;8825;48.086;16.426;2024-01-07T09:26:42;2.50;76.20
17415;DHT22;8825;48.086;16.426;2024-01-07T09:29:10;2.50;76.50
17415;DHT22;8825;48.086;16.426;2024-01-07T09:31:37;2.50;76.80
17415;DHT22;8825;48.086;16.426;2024-01-07T09:34:05;2.50;77.70
17415;DHT22;8825;48.086;16.426;2024-01-07T09:36:33;2.50;77.20
17415;DHT22;8825;48.086;16.426;2024-01-07T09:39:02;2.60;77.30
17415;DHT22;8825;48.086;16.426;2024-01-07T09:41:31;2.60;77.40
17415;DHT22;8825;48.086;16.426;2024-01-07T09:43:59;2.60;77.60
17415;DHT22;8825;48.086;16.426;2024-01-07T09:46:28;2.70;77.70
17415;DHT22;8825;48.086;16.426;2024-01-07T09:48:56;2.70;77.50
17415;DHT22;8825;48.086;16.426;2024-01-07T09:51:24;2.70;77.20
17415;DHT22;8825;48.086;16.426;2024-01-07T09:53:57;2.70;77.90
17415;DHT22;8825;48.086;16.426;2024-01-07T09:56:26;2.80;77.10
17415;DHT22;8825;48.086;16.426;2024-01-07T09:58:55;2.80;77.00
17415;DHT22;8825;48.086;16.426;2024-01-07T10:01:24;2.70;77.60
17415;DHT22;8825;48.086;16.426;2024-01-07T10:03:52;2.70;77.30
17415;DHT22;8825;48.086;16.426;2024-01-07T10:06:20;2.80;77.50
17415;DHT22;8825;48.086;16.426;2024-01-07T10:08:48;2.80;77.50
17415;DHT22;8825;48.086;16.426;2024-01-07T10:11:15;2.80;77.50
17415;DHT22;8825;48.086;16.426;2024-01-07T10:13:45;2.80;77.60
17415;DHT22;8825;48.086;16.426;2024-01-07T10:16:14;2.90;77.60
17415;DHT22;8825;48.086;16.426;2024-01-07T10:18:41;2.90;77.60
17415;DHT22;8825;48.086;16.426;2024-01-07T10:21:09;2.90;77.50
17415;DHT22;8825;48.086;16.426;2024-01-07T10:23:37;2.90;77.50
17415;DHT22;8825;48.086;16.426;2024-01-07T10:26:04;3.00;77.40
17415;DHT22;8825;48.086;16.426;2024-01-07T10:28:32;2.90;77.10
17415;DHT22;8825;48.086;16.426;2024-01-07T10:31:00;3.00;77.00
17415;DHT22;8825;48.086;16.426;2024-01-07T10:33:32;3.00;76.90
17415;DHT22;8825;48.086;16.426;2024-01-07T10:36:07;3.00;76.80
17415;DHT22;8825;48.086;16.426;2024-01-07T10:38:35;3.10;76.80
17415;DHT22;8825;48.086;16.426;2024-01-07T10:41:04;3.10;76.70
17415;DHT22;8825;48.086;16.426;2024-01-07T10:43:35;3.10;76.40
17415;DHT22;8825;48.086;16.426;2024-01-07T10:46:04;3.10;76.40
17415;DHT22;8825;48.086;16.426;2024-01-07T10:48:32;3.10;76.40
17415;DHT22;8825;48.086;16.426;2024-01-07T10:51:01;3.20;76.40
17415;DHT22;8825;48.086;16.426;2024-01-07T10:53:35;3.20;76.20
17415;DHT22;8825;48.086;16.426;2024-01-07T10:56:04;3.20;75.70
17415;DHT22;8825;48.086;16.426;2024-01-07T10:58:35;3.10;75.60
17415;DHT22;8825;48.086;16.426;2024-01-07T11:01:03;3.10;75.60
17415;DHT22;8825;48.086;16.426;2024-01-07T11:03:51;3.10;75.20
17415;DHT22;8825;48.086;16.426;2024-01-07T11:09:38;3.10;74.40
17415;DHT22;8825;48.086;16.426;2024-01-07T11:12:06;3.10;74.40
17415;DHT22;8825;48.086;16.426;2024-01-07T11:14:35;3.10;74.70
17415;DHT22;8825;48.086;16.426;2024-01-07T11:17:05;3.10;74.80
17415;DHT22;8825;48.086;16.426;2024-01-07T11:19:34;3.10;74.80
17415;DHT22;8825;48.086;16.426;2024-01-07T11:22:24;3.10;74.50
17415;DHT22;8825;48.086;16.426;2024-01-07T11:24:54;3.10;74.50
17415;DHT22;8825;48.086;16.426;2024-01-07T11:27:26;3.00;74.50
17415;DHT22;8825;48.086;16.426;2024-01-07T11:30:02;3.00;74.50
17415;DHT22;8825;48.086;16.426;2024-01-07T11:32:30;3.00;74.50
17415;DHT22;8825;48.086;16.426;2024-01-07T11:34:58;3.00;74.40
17415;DHT22;8825;48.086;16.426;2024-01-07T11:37:26;3.00;74.30
17415;DHT22;8825;48.086;16.426;2024-01-07T11:39:57;3.00;74.10
17415;DHT22;8825;48.086;16.426;2024-01-07T11:42:25;3.00;74.20
17415;DHT22;8825;48.086;16.426;2024-01-07T11:44:54;3.10;73.80
17415;DHT22;8825;48.086;16.426;2024-01-07T11:47:23;3.10;73.60
17415;DHT22;8825;48.086;16.426;2024-01-07T11:49:53;3.10;73.70
17415;DHT22;8825;48.086;16.426;2024-01-07T11:52:20;3.10;73.60
17415;DHT22;8825;48.086;16.426;2024-01-07T11:54:48;3.10;73.60
17415;DHT22;8825;48.086;16.426;2024-01-07T11:57:17;3.10;73.60
17415;DHT22;8825;48.086;16.426;2024-01-07T11:59:45;3.10;73.50
17415;DHT22;8825;48.086;16.426;2024-01-07T12:02:12;3.10;73.50
17415;DHT22;8825;48.086;16.426;2024-01-07T12:04:41;3.10;73.30
17415;DHT22;8825;48.086;16.426;2024-01-07T12:07:10;3.10;73.10
17415;DHT22;8825;48.086;16.426;2024-01-07T12:09:39;3.10;72.90
17415;DHT22;8825;48.086;16.426;2024-01-07T12:12:07;3.10;72.80
17415;DHT22;8825;48.086;16.426;2024-01-07T12:14:34;3.10;73.60
17415;DHT22;8825;48.086;16.426;2024-01-07T12:17:02;3.10;72.50
17415;DHT22;8825;48.086;16.426;2024-01-07T12:19:30;3.00;72.40
17415;DHT22;8825;48.086;16.426;2024-01-07T12:22:08;3.00;72.40
17415;DHT22;8825;48.086;16.426;2024-01-07T12:24:35;3.10;72.50
17415;DHT22;8825;48.086;16.426;2024-01-07T12:27:06;3.10;72.60
17415;DHT22;8825;48.086;16.426;2024-01-07T12:29:34;3.10;72.80
17415;DHT22;8825;48.086;16.426;2024-01-07T12:32:02;3.10;72.70
17415;DHT22;8825;48.086;16.426;2024-01-07T12:34:29;3.10;72.60
17415;DHT22;8825;48.086;16.426;2024-01-07T12:36:57;3.10;72.50
17415;DHT22;8825;48.086;16.426;2024-01-07T12:39:26;3.10;73.40
17415;DHT22;8825;48.086;16.426;2024-01-07T12:42:13;3.10;72.50
17415;DHT22;8825;48.086;16.426;2024-01-07T12:44:40;3.10;72.00
17415;DHT22;8825;48.086;16.426;2024-01-07T12:47:08;3.10;72.20
17415;DHT22;8825;48.086;16.426;2024-01-07T12:49:36;3.10;72.10
17415;DHT22;8825;48.086;16.426;2024-01-07T12:52:03;3.10;72.20
17415;DHT22;8825;48.086;16.426;2024-01-07T12:54:31;3.10;72.30
17415;DHT22;8825;48.086;16.426;2024-01-07T12:56:59;3.10;72.40
17415;DHT22;8825;48.086;16.426;2024-01-07T12:59:27;3.10;72.60
17415;DHT22;8825;48.086;16.426;2024-01-07T13:01:54;3.10;72.40
17415;DHT22;8825;48.086;16.426;2024-01-07T13:04:41;3.20;72.90
17415;DHT22;8825;48.086;16.426;2024-01-07T13:07:09;3.20;72.70
17415;DHT22;8825;48.086;16.426;2024-01-07T13:09:36;3.20;73.10
17415;DHT22;8825;48.086;16.426;2024-01-07T13:12:04;3.20;73.10
17415;DHT22;8825;48.086;16.426;2024-01-07T13:14:31;3.20;73.30
17415;DHT22;8825;48.086;16.426;2024-01-07T13:16:59;3.30;73.60
17415;DHT22;8825;48.086;16.426;2024-01-07T13:19:26;3.30;73.70
17415;DHT22;8825;48.086;16.426;2024-01-07T13:21:54;3.30;73.70
17415;DHT22;8825;48.086;16.426;2024-01-07T13:24:28;3.30;73.70
17415;DHT22;8825;48.086;16.426;2024-01-07T13:26:55;3.30;73.70
17415;DHT22;8825;48.086;16.426;2024-01-07T13:29:23;3.20;73.70
17415;DHT22;8825;48.086;16.426;2024-01-07T13:31:51;3.20;73.70
17415;DHT22;8825;48.086;16.426;2024-01-07T13:34:18;3.30;73.90
17415;DHT22;8825;48.086;16.426;2024-01-07T13:36:46;3.30;74.00
17415;DHT22;8825;48.086;16.426;2024-01-07T13:39:13;3.30;73.90
17415;DHT22;8825;48.086;16.426;2024-01-07T13:41:42;3.30;73.90
17415;DHT22;8825;48.086;16.426;2024-01-07T13:44:11;3.30;74.00
17415;DHT22;8825;48.086;16.426;2024-01-07T13:46:40;3.20;74.00
17415;DHT22;8825;48.086;16.426;2024-01-07T13:49:08;3.20;73.80
17415;DHT22;8825;48.086;16.426;2024-01-07T13:51:36;3.20;73.90
17415;DHT22;8825;48.086;16.426;2024-01-07T13:54:04;3.20;73.70
17415;DHT22;8825;48.086;16.426;2024-01-07T13:56:32;3.10;73.80
17415;DHT22;8825;48.086;16.426;2024-01-07T13:59:02;3.10;73.90
17415;DHT22;8825;48.086;16.426;2024-01-07T14:01:30;3.10;74.00
17415;DHT22;8825;48.086;16.426;2024-01-07T14:03:58;3.10;74.00
17415;DHT22;8825;48.086;16.426;2024-01-07T14:06:26;3.10;74.10
17415;DHT22;8825;48.086;16.426;2024-01-07T14:08:53;3.10;74.10
17415;DHT22;8825;48.086;16.426;2024-01-07T14:11:21;3.00;73.90
17415;DHT22;8825;48.086;16.426;2024-01-07T14:13:48;3.00;73.70
17415;DHT22;8825;48.086;16.426;2024-01-07T14:16:16;3.00;74.50
17415;DHT22;8825;48.086;16.426;2024-01-07T14:18:44;3.00;73.80
17415;DHT22;8825;48.086;16.426;2024-01-07T14:21:11;3.00;73.70
17415;DHT22;8825;48.086;16.426;2024-01-07T14:23:39;3.10;73.90
17415;DHT22;8825;48.086;16.426;2024-01-07T14:26:06;3.00;73.60
17415;DHT22;8825;48.086;16.426;2024-01-07T14:28:34;3.00;73.20
17415;DHT22;8825;48.086;16.426;2024-01-07T14:31:02;3.00;73.30
17415;DHT22;8825;48.086;16.426;2024-01-07T14:33:30;2.90;73.50
17415;DHT22;8825;48.086;16.426;2024-01-07T14:35:57;3.00;73.60
17415;DHT22;8825;48.086;16.426;2024-01-07T14:38:25;2.90;73.40
17415;DHT22;8825;48.086;16.426;2024-01-07T14:40:52;2.90;73.50
17415;DHT22;8825;48.086;16.426;2024-01-07T14:43:20;3.50;78.40
17415;DHT22;8825;48.086;16.426;2024-01-07T14:45:47;4.70;81.60
17415;DHT22;8825;48.086;16.426;2024-01-07T14:48:15;5.90;78.80
17415;DHT22;8825;48.086;16.426;2024-01-07T14:50:42;6.00;73.50
17415;DHT22;8825;48.086;16.426;2024-01-07T14:53:11;5.50;71.80
17415;DHT22;8825;48.086;16.426;2024-01-07T14:55:39;5.10;71.10
17415;DHT22;8825;48.086;16.426;2024-01-07T14:58:06;4.80;71.90
17415;DHT22;8825;48.086;16.426;2024-01-07T15:00:34;4.80;71.30
17415;DHT22;8825;48.086;16.426;2024-01-07T15:03:02;4.60;71.20
17415;DHT22;8825;48.086;16.426;2024-01-07T15:05:30;4.60;70.80
17415;DHT22;8825;48.086;16.426;2024-01-07T15:07:57;4.40;70.10
17415;DHT22;8825;48.086;16.426;2024-01-07T15:10:25;4.20;69.60
17415;DHT22;8825;48.086;16.426;2024-01-07T15:12:52;4.10;69.40
17415;DHT22;8825;48.086;16.426;2024-01-07T15:15:20;3.90;69.50
17415;DHT22;8825;48.086;16.426;2024-01-07T15:17:49;3.80;69.80
17415;DHT22;8825;48.086;16.426;2024-01-07T15:20:17;3.70;69.70
17415;DHT22;8825;48.086;16.426;2024-01-07T15:22:44;3.70;69.80
17415;DHT22;8825;48.086;16.426;2024-01-07T15:25:12;3.50;69.70
17415;DHT22;8825;48.086;16.426;2024-01-07T15:27:40;3.50;70.30
17415;DHT22;8825;48.086;16.426;2024-01-07T15:30:08;3.50;70.50
17415;DHT22;8825;48.086;16.426;2024-01-07T15:32:36;3.40;70.30
17415;DHT22;8825;48.086;16.426;2024-01-07T15:35:04;3.40;70.70
17415;DHT22;8825;48.086;16.426;2024-01-07T15:37:33;3.40;70.70
17415;DHT22;8825;48.086;16.426;2024-01-07T15:40:00;3.30;70.40
17415;DHT22;8825;48.086;16.426;2024-01-07T15:42:29;3.20;70.70
17415;DHT22;8825;48.086;16.426;2024-01-07T15:45:16;3.30;71.70
17415;DHT22;8825;48.086;16.426;2024-01-07T15:47:44;3.40;71.10
17415;DHT22;8825;48.086;16.426;2024-01-07T15:50:11;3.30;70.80
17415;DHT22;8825;48.086;16.426;2024-01-07T15:52:39;3.20;70.30
17415;DHT22;8825;48.086;16.426;2024-01-07T15:55:09;3.20;70.40